createdAt,value
2023-01-19T00:00:54.558Z,79.32
2023-01-19T00:03:21.590Z,79.52
2023-01-19T00:05:48.565Z,79.68
2023-01-19T00:08:15.332Z,79.14
2023-01-19T00:10:47.772Z,79.43
2023-01-19T00:13:15.793Z,78.99
2023-01-19T00:15:43.005Z,78.95
2023-01-19T00:18:11.145Z,78.67
2023-01-19T00:20:39.345Z,78.74
2023-01-19T00:23:08.003Z,79.01
2023-01-19T00:25:35.471Z,78.76
2023-01-19T00:28:02.409Z,78.87
2023-01-19T00:30:29.282Z,79.18
2023-01-19T00:32:56.406Z,79.37
2023-01-19T00:35:23.287Z,79.35
2023-01-19T00:37:50.318Z,79.04
2023-01-19T00:40:17.508Z,78.94
2023-01-19T00:42:44.594Z,78.94
2023-01-19T00:45:16.177Z,78.37
2023-01-19T00:47:42.932Z,78.54
2023-01-19T00:50:14.454Z,78.80
2023-01-19T00:52:41.995Z,78.47
2023-01-19T00:55:10.189Z,78.19
2023-01-19T00:57:37.794Z,78.83
2023-01-19T01:00:11.657Z,78.01
2023-01-19T01:02:39.959Z,78.22
2023-01-19T01:05:07.860Z,77.86
2023-01-19T01:07:41.249Z,77.73
2023-01-19T01:10:16.845Z,77.93
2023-01-19T01:12:53.649Z,77.77
2023-01-19T01:15:26.380Z,77.79
2023-01-19T01:17:53.632Z,77.28
2023-01-19T01:20:27.956Z,77.39
2023-01-19T01:22:56.235Z,77.58
2023-01-19T01:25:24.807Z,77.69
2023-01-19T01:27:52.417Z,77.78
2023-01-19T01:30:19.943Z,77.32
2023-01-19T01:32:46.758Z,77.52
2023-01-19T01:35:14.022Z,77.56
2023-01-19T01:37:41.127Z,77.73
2023-01-19T01:40:09.032Z,77.60
2023-01-19T01:42:35.893Z,77.76
2023-01-19T01:45:07.612Z,78.04
2023-01-19T01:47:47.195Z,78.84
2023-01-19T01:50:26.432Z,78.47
2023-01-19T01:53:06.639Z,79.28
2023-01-19T01:55:43.274Z,79.04
2023-01-19T01:58:11.346Z,79.07
2023-01-19T02:00:58.807Z,79.90
2023-01-19T02:03:26.916Z,80.01
2023-01-19T02:05:57.607Z,79.80
2023-01-19T02:09:05.187Z,79.86
2023-01-19T02:11:52.045Z,80.19
2023-01-19T02:14:21.544Z,80.47
2023-01-19T02:16:48.582Z,80.26
2023-01-19T02:19:26.186Z,80.27
2023-01-19T02:22:25.788Z,79.30
2023-01-19T02:24:53.930Z,78.31
2023-01-19T02:27:20.836Z,78.28
2023-01-19T02:29:47.777Z,78.67
2023-01-19T02:32:14.531Z,79.12
2023-01-19T02:34:41.335Z,79.45
2023-01-19T02:37:12.515Z,78.32
2023-01-19T02:39:44.764Z,78.22
2023-01-19T02:42:21.467Z,78.19
2023-01-19T02:44:50.802Z,77.57
2023-01-19T02:47:18.404Z,76.91
2023-01-19T02:49:45.180Z,76.59
2023-01-19T02:52:18.028Z,76.31
2023-01-19T02:55:06.529Z,76.77
2023-01-19T02:57:49.222Z,76.45
2023-01-19T03:00:49.894Z,76.39
2023-01-19T03:03:27.064Z,76.37
2023-01-19T03:06:08.428Z,76.01
2023-01-19T03:09:01.589Z,76.15
2023-01-19T03:11:35.220Z,76.77
2023-01-19T03:14:11.515Z,76.70
2023-01-19T03:16:44.057Z,76.59
2023-01-19T03:19:23.030Z,76.85
2023-01-19T03:21:55.243Z,77.20
2023-01-19T03:24:25.002Z,77.43
2023-01-19T03:26:58.891Z,77.35
2023-01-19T03:29:30.186Z,77.50
2023-01-19T03:31:59.765Z,77.81
2023-01-19T03:34:28.877Z,78.57
2023-01-19T03:37:00.411Z,77.79
2023-01-19T03:39:28.889Z,78.00
2023-01-19T03:42:03.004Z,78.16
2023-01-19T03:44:32.457Z,78.28
2023-01-19T03:47:00.175Z,78.17
2023-01-19T03:49:27.070Z,78.28
2023-01-19T03:51:58.864Z,78.26
2023-01-19T03:54:25.954Z,77.21
2023-01-19T03:56:52.604Z,76.72
2023-01-19T03:59:20.081Z,76.61
2023-01-19T04:01:47.032Z,76.62
2023-01-19T04:04:15.434Z,76.45
2023-01-19T04:06:43.454Z,76.17
2023-01-19T04:09:10.375Z,75.79
2023-01-19T04:11:37.045Z,75.99
2023-01-19T04:14:04.282Z,76.00
2023-01-19T04:16:31.032Z,76.13
2023-01-19T04:18:58.144Z,76.09
2023-01-19T04:21:25.029Z,75.88
2023-01-19T04:23:53.151Z,75.77
2023-01-19T04:26:20.145Z,75.86
2023-01-19T04:28:54.533Z,76.06
2023-01-19T04:31:24.923Z,76.14
2023-01-19T04:33:51.682Z,76.03
2023-01-19T04:36:18.355Z,76.36
2023-01-19T04:38:46.674Z,76.46
2023-01-19T04:41:13.445Z,76.19
2023-01-19T04:43:40.865Z,75.73
2023-01-19T04:46:07.778Z,76.05
2023-01-19T04:48:34.869Z,76.19
2023-01-19T04:51:01.596Z,75.51
2023-01-19T04:53:28.362Z,75.99
2023-01-19T04:55:55.415Z,75.80
2023-01-19T04:58:22.237Z,76.06
2023-01-19T05:00:49.289Z,75.91
2023-01-19T05:03:16.128Z,76.18
2023-01-19T05:05:42.857Z,76.17
2023-01-19T05:08:09.635Z,76.01
2023-01-19T05:10:36.590Z,75.88
2023-01-19T05:13:04.236Z,75.76
2023-01-19T05:15:31.001Z,75.56
2023-01-19T05:17:58.545Z,75.54
2023-01-19T05:20:26.102Z,75.95
2023-01-19T05:22:53.677Z,76.24
2023-01-19T05:25:20.878Z,75.41
2023-01-19T05:27:47.923Z,75.41
2023-01-19T05:30:14.788Z,76.10
2023-01-19T05:32:41.652Z,75.85
2023-01-19T05:35:09.546Z,75.85
2023-01-19T05:37:36.371Z,75.71
2023-01-19T05:40:03.611Z,75.64
2023-01-19T05:42:32.099Z,75.20
2023-01-19T05:45:00.193Z,75.57
2023-01-19T05:47:30.851Z,75.07
2023-01-19T05:49:57.880Z,75.62
2023-01-19T05:52:27.748Z,75.47
2023-01-19T05:54:55.234Z,75.69
2023-01-19T05:57:22.785Z,75.27
2023-01-19T05:59:49.678Z,76.11
2023-01-19T06:02:16.829Z,76.01
2023-01-19T06:04:43.493Z,75.51
2023-01-19T06:07:10.161Z,75.68
2023-01-19T06:09:37.131Z,75.67
2023-01-19T06:12:04.362Z,75.83
2023-01-19T06:14:32.442Z,75.33
2023-01-19T06:16:59.318Z,74.90
2023-01-19T06:19:26.111Z,75.58
2023-01-19T06:21:52.886Z,74.80
2023-01-19T06:24:20.063Z,75.19
2023-01-19T06:26:46.971Z,75.95
2023-01-19T06:29:14.638Z,75.29
2023-01-19T06:31:42.468Z,75.57
2023-01-19T06:34:09.842Z,75.79
2023-01-19T06:36:36.908Z,75.59
2023-01-19T06:39:05.956Z,75.62
2023-01-19T06:41:37.032Z,75.71
2023-01-19T06:44:04.593Z,75.39
2023-01-19T06:46:31.917Z,75.27
2023-01-19T06:48:58.846Z,75.48
2023-01-19T06:51:26.235Z,75.69
2023-01-19T06:53:53.162Z,76.03
2023-01-19T06:56:19.812Z,75.47
2023-01-19T06:58:48.410Z,76.20
2023-01-19T07:01:15.411Z,75.74
2023-01-19T07:03:42.528Z,76.27
2023-01-19T07:06:09.404Z,76.05
2023-01-19T07:08:37.405Z,75.83
2023-01-19T07:11:25.799Z,76.04
2023-01-19T07:13:56.039Z,75.31
2023-01-19T07:16:23.122Z,76.01
2023-01-19T07:18:50.173Z,76.22
2023-01-19T07:21:17.855Z,76.14
2023-01-19T07:23:47.773Z,75.62
2023-01-19T07:26:15.348Z,75.98
2023-01-19T07:28:42.270Z,76.10
2023-01-19T07:31:09.689Z,76.42
2023-01-19T07:33:36.762Z,76.17
2023-01-19T07:36:03.692Z,75.89
2023-01-19T07:38:30.738Z,76.14
2023-01-19T07:41:05.305Z,75.10
2023-01-19T07:43:33.112Z,74.90
2023-01-19T07:46:01.796Z,75.96
2023-01-19T07:48:29.109Z,75.48
2023-01-19T07:51:11.711Z,75.75
2023-01-19T07:53:40.035Z,75.40
2023-01-19T07:56:07.812Z,75.67
2023-01-19T07:58:34.759Z,75.32
2023-01-19T08:01:06.656Z,75.58
2023-01-19T08:03:33.523Z,75.72
2023-01-19T08:06:00.499Z,75.23
2023-01-19T08:08:30.724Z,74.98
2023-01-19T08:10:58.989Z,75.36
2023-01-19T08:14:01.097Z,75.24
2023-01-19T08:16:28.760Z,74.45
2023-01-19T08:21:46.548Z,74.14
2023-01-19T08:24:21.669Z,73.73
2023-01-19T08:26:50.419Z,73.59
2023-01-19T08:29:20.517Z,74.41
2023-01-19T08:31:47.720Z,73.80
2023-01-19T08:34:14.821Z,74.10
2023-01-19T08:37:02.333Z,74.18
2023-01-19T08:39:31.313Z,74.34
2023-01-19T08:42:03.559Z,74.75
2023-01-19T08:44:30.838Z,74.94
2023-01-19T08:47:00.015Z,74.48
2023-01-19T08:49:31.024Z,74.51
2023-01-19T08:51:59.249Z,74.79
2023-01-19T08:54:26.074Z,74.71
2023-01-19T08:56:54.336Z,74.46
2023-01-19T08:59:38.231Z,74.91
2023-01-19T09:02:05.373Z,74.59
2023-01-19T09:04:34.547Z,74.13
2023-01-19T09:07:02.589Z,74.25
2023-01-19T09:09:29.656Z,74.63
2023-01-19T09:11:56.357Z,74.67
2023-01-19T09:14:23.256Z,74.63
2023-01-19T09:16:50.078Z,74.69
2023-01-19T09:19:16.936Z,74.73
2023-01-19T09:21:43.834Z,73.99
2023-01-19T09:24:10.669Z,74.14
2023-01-19T09:26:37.497Z,73.97
2023-01-19T09:29:04.350Z,74.68
2023-01-19T09:31:31.157Z,74.20
2023-01-19T09:33:58.070Z,73.92
2023-01-19T09:36:25.086Z,73.99
2023-01-19T09:38:52.000Z,73.90
2023-01-19T09:41:22.703Z,73.51
2023-01-19T09:43:56.650Z,73.71
2023-01-19T09:46:46.556Z,73.48
2023-01-19T09:49:24.602Z,74.09
2023-01-19T09:51:51.517Z,74.50
2023-01-19T09:54:25.269Z,74.25
2023-01-19T09:56:53.756Z,74.70
2023-01-19T09:59:21.610Z,73.82
2023-01-19T10:01:55.607Z,73.73
2023-01-19T10:04:32.228Z,74.06
2023-01-19T10:07:30.093Z,73.58
2023-01-19T10:10:23.489Z,73.26
2023-01-19T10:13:01.578Z,73.87
2023-01-19T10:15:58.502Z,73.92
2023-01-19T10:18:35.725Z,73.73
2023-01-19T10:21:08.653Z,73.77
2023-01-19T10:23:38.590Z,73.44
2023-01-19T10:26:25.958Z,72.97
2023-01-19T10:29:02.574Z,73.27
2023-01-19T10:31:29.461Z,73.61
2023-01-19T10:33:56.247Z,72.98
2023-01-19T10:36:33.917Z,71.92
2023-01-19T10:39:00.674Z,72.50
2023-01-19T10:41:50.527Z,73.06
2023-01-19T10:44:28.843Z,72.54
2023-01-19T10:46:58.702Z,73.06
2023-01-19T10:49:34.977Z,73.06
2023-01-19T10:52:03.104Z,72.73
2023-01-19T10:54:31.813Z,72.61
2023-01-19T10:57:05.030Z,72.70
2023-01-19T10:59:43.940Z,71.95
2023-01-19T11:02:22.995Z,72.66
2023-01-19T11:04:53.092Z,72.53
2023-01-19T11:07:26.120Z,72.10
2023-01-19T11:10:11.724Z,72.44
2023-01-19T11:12:53.507Z,72.34
2023-01-19T11:15:28.511Z,71.66
2023-01-19T11:17:55.696Z,72.19
2023-01-19T11:20:35.020Z,71.35
2023-01-19T11:23:27.230Z,71.77
2023-01-19T11:25:58.064Z,71.93
2023-01-19T11:28:39.907Z,71.61
2023-01-19T11:31:15.680Z,71.94
2023-01-19T11:33:43.668Z,72.28
2023-01-19T11:36:24.792Z,72.51
2023-01-19T11:39:15.834Z,72.35
2023-01-19T11:41:42.903Z,71.85
2023-01-19T11:44:33.856Z,72.64
2023-01-19T11:47:04.979Z,72.38
2023-01-19T11:49:47.405Z,73.15
2023-01-19T11:52:17.104Z,73.35
2023-01-19T11:55:05.336Z,73.12
2023-01-19T11:57:32.066Z,73.25
2023-01-19T12:00:03.573Z,72.90
2023-01-19T12:02:44.795Z,73.13
2023-01-19T12:05:16.123Z,73.26
2023-01-19T12:07:45.356Z,73.98
2023-01-19T12:10:27.132Z,74.02
2023-01-19T12:12:54.306Z,73.80
2023-01-19T12:15:37.469Z,74.51
2023-01-19T12:18:12.022Z,74.35
2023-01-19T12:20:44.429Z,74.63
2023-01-19T12:23:11.151Z,74.81
2023-01-19T12:25:46.719Z,75.96
2023-01-19T12:28:16.760Z,75.35
2023-01-19T12:30:44.496Z,75.69
2023-01-19T12:33:26.516Z,76.48
2023-01-19T12:36:14.643Z,75.89
2023-01-19T12:39:02.194Z,76.37
2023-01-19T12:41:35.037Z,76.27
2023-01-19T12:44:16.776Z,76.53
2023-01-19T12:47:06.413Z,76.68
2023-01-19T12:49:35.526Z,77.46
2023-01-19T12:52:35.807Z,77.49
2023-01-19T12:55:14.728Z,77.95
2023-01-19T12:57:55.405Z,77.70
2023-01-19T13:00:22.163Z,77.96
2023-01-19T13:02:56.194Z,78.46
2023-01-19T13:05:33.168Z,77.94
2023-01-19T13:08:03.010Z,78.37
2023-01-19T13:11:04.977Z,78.21
2023-01-19T13:13:42.381Z,78.51
2023-01-19T13:16:18.215Z,78.16
2023-01-19T13:19:13.119Z,77.72
2023-01-19T13:21:45.760Z,78.33
2023-01-19T13:24:17.779Z,78.69
2023-01-19T13:26:50.333Z,78.89
2023-01-19T13:29:17.099Z,79.19
2023-01-19T13:31:45.999Z,79.36
2023-01-19T13:34:19.960Z,79.56
2023-01-19T13:36:52.886Z,79.82
2023-01-19T13:39:51.122Z,79.69
2023-01-19T13:42:37.877Z,79.40
2023-01-19T13:45:33.541Z,79.23
2023-01-19T13:48:05.265Z,79.74
2023-01-19T13:50:35.246Z,79.81
2023-01-19T13:53:04.613Z,79.63
2023-01-19T13:55:31.776Z,79.34
2023-01-19T13:57:58.681Z,79.82
2023-01-19T14:00:30.777Z,79.80
2023-01-19T14:03:13.853Z,79.85
2023-01-19T14:05:43.962Z,80.13
2023-01-19T14:08:13.705Z,79.84
2023-01-19T14:11:01.193Z,79.67
2023-01-19T14:13:35.012Z,80.01
2023-01-19T14:16:07.023Z,79.36
2023-01-19T14:18:36.897Z,79.70
2023-01-19T14:21:11.337Z,79.59
2023-01-19T14:23:49.300Z,79.76
2023-01-19T14:26:38.224Z,79.96
2023-01-19T14:29:34.605Z,80.03
2023-01-19T14:32:01.473Z,79.81
2023-01-19T14:34:39.182Z,79.77
2023-01-19T14:37:16.802Z,79.90
2023-01-19T14:39:46.818Z,80.21
2023-01-19T14:42:28.611Z,79.98
2023-01-19T14:44:57.853Z,79.81
2023-01-19T14:47:29.900Z,80.41
2023-01-19T14:50:28.331Z,79.86
2023-01-19T14:53:02.402Z,80.19
2023-01-19T14:55:35.660Z,79.93
2023-01-19T14:58:07.706Z,79.65
2023-01-19T15:00:34.403Z,80.20
2023-01-19T15:03:01.103Z,80.29
2023-01-19T15:05:28.207Z,80.50
2023-01-19T15:07:56.538Z,80.21
2023-01-19T15:10:24.911Z,80.31
2023-01-19T15:12:54.024Z,80.27
2023-01-19T15:15:29.242Z,80.65
2023-01-19T15:17:56.541Z,80.27
2023-01-19T15:20:23.807Z,80.05
2023-01-19T15:22:50.742Z,80.42
2023-01-19T15:25:25.746Z,80.51
2023-01-19T15:27:53.174Z,80.55
2023-01-19T15:30:24.656Z,80.86
2023-01-19T15:32:51.518Z,80.67
2023-01-19T15:35:23.297Z,80.93
2023-01-19T15:37:51.573Z,80.76
2023-01-19T15:40:19.812Z,80.91
2023-01-19T15:42:46.798Z,80.49
2023-01-19T15:45:54.733Z,80.55
2023-01-19T15:48:22.482Z,81.01
2023-01-19T15:50:49.267Z,80.99
2023-01-19T15:53:18.879Z,81.64
2023-01-19T15:55:50.235Z,81.36
2023-01-19T15:58:18.497Z,81.38
2023-01-19T16:00:45.283Z,81.20
2023-01-19T16:03:12.012Z,81.33
2023-01-19T16:05:43.425Z,81.02
2023-01-19T16:08:11.727Z,81.25
2023-01-19T16:10:43.361Z,81.74
2023-01-19T16:13:11.388Z,81.97
2023-01-19T16:15:39.752Z,81.82
2023-01-19T16:18:06.697Z,81.98
2023-01-19T16:20:33.554Z,81.97
2023-01-19T16:23:14.535Z,82.10
2023-01-19T16:25:42.395Z,81.88
2023-01-19T16:28:09.377Z,82.02
2023-01-19T16:30:36.220Z,81.88
2023-01-19T16:33:03.469Z,81.83
2023-01-19T16:35:30.189Z,81.79
2023-01-19T16:37:56.890Z,82.12
2023-01-19T16:40:23.651Z,81.75
2023-01-19T16:42:51.075Z,81.71
2023-01-19T16:45:17.817Z,81.48
2023-01-19T16:47:46.943Z,81.47
2023-01-19T16:50:13.672Z,81.03
2023-01-19T16:52:40.508Z,81.47
2023-01-19T16:55:09.600Z,81.88
2023-01-19T16:57:38.950Z,82.00
2023-01-19T17:00:09.379Z,81.71
2023-01-19T17:02:41.025Z,81.53
2023-01-19T17:05:08.446Z,81.32
2023-01-19T17:07:35.309Z,81.49
2023-01-19T17:10:02.301Z,81.56
2023-01-19T17:12:32.059Z,81.96
2023-01-19T17:14:59.679Z,81.78
2023-01-19T17:17:26.908Z,81.32
2023-01-19T17:19:54.474Z,81.81
2023-01-19T17:22:21.679Z,81.65
2023-01-19T17:24:49.160Z,81.80
2023-01-19T17:27:17.150Z,81.80
2023-01-19T17:29:43.875Z,81.61
2023-01-19T17:32:10.677Z,81.98
2023-01-19T17:34:37.520Z,82.76
2023-01-19T17:37:04.486Z,82.20
2023-01-19T17:39:31.600Z,81.86
2023-01-19T17:41:58.673Z,81.62
2023-01-19T17:44:25.533Z,81.36
2023-01-19T17:46:52.324Z,81.23
2023-01-19T17:49:19.067Z,81.29
2023-01-19T17:51:51.739Z,81.92
2023-01-19T17:54:19.257Z,81.87
2023-01-19T17:56:46.015Z,81.69
2023-01-19T17:59:13.165Z,81.34
2023-01-19T18:01:40.619Z,81.21
2023-01-19T18:04:08.473Z,81.47
2023-01-19T18:06:35.820Z,81.89
2023-01-19T18:09:04.839Z,81.87
2023-01-19T18:11:32.449Z,82.42
2023-01-19T18:14:00.644Z,82.33
2023-01-19T18:16:29.950Z,81.81
2023-01-19T18:18:57.124Z,81.73
2023-01-19T18:21:27.408Z,82.01
2023-01-19T18:24:01.218Z,81.65
2023-01-19T18:26:28.647Z,81.78
2023-01-19T18:28:57.224Z,82.02
2023-01-19T18:31:25.677Z,81.87
2023-01-19T18:33:53.014Z,81.43
2023-01-19T18:36:20.363Z,81.91
2023-01-19T18:38:47.699Z,81.56
2023-01-19T18:41:17.286Z,81.34
2023-01-19T18:43:44.176Z,81.38
2023-01-19T18:46:11.483Z,81.60
2023-01-19T18:48:39.608Z,81.40
2023-01-19T18:51:12.232Z,81.69
2023-01-19T18:53:39.493Z,82.00
2023-01-19T18:56:06.560Z,81.66
2023-01-19T18:58:37.994Z,81.42
2023-01-19T19:01:16.687Z,82.12
2023-01-19T19:03:43.597Z,82.12
2023-01-19T19:06:11.763Z,82.04
2023-01-19T19:08:38.841Z,82.25
2023-01-19T19:11:12.668Z,82.80
2023-01-19T19:13:40.903Z,82.61
2023-01-19T19:16:09.437Z,82.51
2023-01-19T19:18:38.058Z,82.57
2023-01-19T19:21:07.436Z,82.29
2023-01-19T19:23:34.704Z,82.99
2023-01-19T19:26:07.323Z,83.26
2023-01-19T19:28:37.159Z,83.13
2023-01-19T19:31:10.344Z,82.71
2023-01-19T19:33:38.091Z,83.02
2023-01-19T19:36:06.220Z,83.10
2023-01-19T19:38:33.337Z,83.24
2023-01-19T19:41:05.215Z,83.18
2023-01-19T19:43:33.147Z,83.42
2023-01-19T19:46:06.520Z,83.07
2023-01-19T19:48:34.075Z,83.59
2023-01-19T19:51:17.559Z,83.40
2023-01-19T19:53:46.512Z,83.49
2023-01-19T19:56:13.869Z,83.45
2023-01-19T19:58:44.701Z,83.28
2023-01-19T20:01:14.640Z,83.44
2023-01-19T20:03:42.238Z,83.07
2023-01-19T20:06:15.449Z,83.40
2023-01-19T20:08:43.068Z,83.25
2023-01-19T20:11:13.720Z,82.77
2023-01-19T20:13:41.495Z,83.30
2023-01-19T20:16:12.685Z,82.79
2023-01-19T20:18:48.797Z,82.77
2023-01-19T20:21:19.444Z,83.40
2023-01-19T20:23:49.278Z,82.84
2023-01-19T20:26:20.202Z,82.73
2023-01-19T20:28:47.588Z,83.04
2023-01-19T20:31:24.580Z,83.12
2023-01-19T20:33:52.944Z,82.42
2023-01-19T20:36:21.984Z,83.15
2023-01-19T20:38:48.685Z,82.79
2023-01-19T20:41:15.609Z,82.85
2023-01-19T20:43:42.608Z,82.77
2023-01-19T20:46:10.273Z,82.40
2023-01-19T20:48:39.177Z,82.88
2023-01-19T20:51:08.882Z,82.65
2023-01-19T20:53:35.894Z,82.63
2023-01-19T20:56:06.168Z,83.12
2023-01-19T20:58:33.817Z,82.75
2023-01-19T21:01:00.681Z,83.15
2023-01-19T21:03:29.506Z,82.67
2023-01-19T21:05:59.401Z,82.96
2023-01-19T21:08:26.221Z,82.89
2023-01-19T21:10:56.452Z,82.69
2023-01-19T21:13:23.203Z,83.01
2023-01-19T21:15:50.210Z,82.84
2023-01-19T21:18:17.062Z,82.95
2023-01-19T21:20:44.841Z,82.88
2023-01-19T21:23:11.510Z,83.27
2023-01-19T21:25:38.321Z,83.47
2023-01-19T21:28:05.177Z,83.34
2023-01-19T21:30:31.889Z,82.97
2023-01-19T21:32:58.686Z,83.05
2023-01-19T21:35:25.489Z,82.96
2023-01-19T21:37:52.187Z,82.76
2023-01-19T21:40:19.029Z,82.85
2023-01-19T21:42:45.757Z,82.90
2023-01-19T21:45:12.948Z,83.08
2023-01-19T21:47:39.789Z,83.07
2023-01-19T21:50:06.691Z,82.71
2023-01-19T21:52:33.429Z,82.98
2023-01-19T21:55:00.169Z,82.61
2023-01-19T21:57:26.896Z,82.88
2023-01-19T21:59:53.608Z,83.13
2023-01-19T22:02:37.147Z,82.59
2023-01-19T22:05:06.490Z,82.72
2023-01-19T22:07:33.362Z,82.75
2023-01-19T22:10:02.539Z,83.08
2023-01-19T22:12:33.323Z,83.51
2023-01-19T22:15:00.053Z,83.15
2023-01-19T22:17:26.745Z,82.89
2023-01-19T22:19:53.685Z,82.49
2023-01-19T22:22:20.872Z,82.79
2023-01-19T22:24:50.205Z,82.82
2023-01-19T22:27:17.324Z,82.86
2023-01-19T22:29:44.059Z,82.87
2023-01-19T22:32:10.789Z,82.76
2023-01-19T22:34:37.575Z,82.98
2023-01-19T22:37:06.382Z,82.83
2023-01-19T22:39:34.395Z,83.49
2023-01-19T22:42:01.185Z,83.30
2023-01-19T22:44:27.931Z,83.15
2023-01-19T22:46:55.988Z,83.63
2023-01-19T22:49:22.984Z,83.44
2023-01-19T22:51:49.717Z,83.50
2023-01-19T22:54:16.500Z,83.76
2023-01-19T22:56:43.342Z,83.70
2023-01-19T22:59:10.070Z,83.20
2023-01-19T23:01:42.948Z,83.45
2023-01-19T23:04:15.448Z,83.88
2023-01-19T23:06:42.664Z,83.04
2023-01-19T23:09:14.001Z,83.60
2023-01-19T23:11:43.272Z,83.37
2023-01-19T23:14:15.649Z,83.41
2023-01-19T23:16:42.854Z,83.64
2023-01-19T23:19:11.745Z,83.56
2023-01-19T23:21:38.673Z,83.70
2023-01-19T23:24:06.127Z,83.69
2023-01-19T23:26:38.244Z,83.19
2023-01-19T23:29:08.090Z,83.31
2023-01-19T23:31:37.060Z,83.12
2023-01-19T23:34:09.051Z,83.67
2023-01-19T23:36:37.700Z,83.31
2023-01-19T23:39:14.151Z,83.42
2023-01-19T23:41:40.928Z,83.12
2023-01-19T23:44:08.766Z,83.11
2023-01-19T23:46:35.622Z,83.21
2023-01-19T23:49:02.533Z,83.48
2023-01-19T23:51:31.715Z,83.79
2023-01-19T23:53:59.441Z,83.51
2023-01-19T23:56:32.132Z,83.71
2023-01-19T23:59:01.704Z,83.44
